Time;durP1;ratioP1;P1;durP2;ratioP2;P2;SDS_P1;SDS_P2;PMS_P1;PMS_P2;Temp;Humidity;BMP_temperature;BMP_pressure;BME280_temperature;BME280_humidity;BME280_pressure;Samples;Min_cycle;Max_cycle;Signal;HPM_P1;HPM_P2
2023/06/19 00:01:15;;;;;;;7.20;5.95;;;12.00;99.90;;;;;;5030839;28;20482;-80
2023/06/19 00:03:41;;;;;;;6.72;6.13;;;11.90;99.90;;;;;;5030738;28;20025;-80
2023/06/19 00:06:06;;;;;;;7.15;6.38;;;11.80;99.90;;;;;;5029316;28;20383;-80
2023/06/19 00:08:32;;;;;;;8.15;7.35;;;11.70;99.90;;;;;;5029059;28;20025;-80
2023/06/19 00:10:57;;;;;;;8.07;7.28;;;11.60;99.90;;;;;;5028675;28;20017;-80
2023/06/19 00:13:23;;;;;;;10.52;8.02;;;11.50;99.90;;;;;;5030521;28;20089;-80
2023/06/19 00:15:49;;;;;;;7.95;7.15;;;11.50;99.90;;;;;;5029328;28;20409;-80
2023/06/19 00:18:16;;;;;;;8.40;7.60;;;11.50;99.90;;;;;;5030165;28;20580;-80
2023/06/19 00:20:45;;;;;;;8.43;7.22;;;11.40;99.90;;;;;;5029049;28;20535;-80
2023/06/19 00:23:13;;;;;;;8.00;6.97;;;11.40;99.90;;;;;;5029005;28;20020;-80
2023/06/19 00:25:43;;;;;;;10.68;8.63;;;11.40;99.90;;;;;;5030445;28;20109;-80
2023/06/19 00:28:11;;;;;;;10.55;9.40;;;11.40;99.90;;;;;;5022057;28;20026;-80
2023/06/19 00:30:37;;;;;;;8.98;7.97;;;11.40;99.90;;;;;;5009214;28;20463;-80
2023/06/19 00:33:03;;;;;;;10.43;8.60;;;11.40;99.90;;;;;;5009081;28;20062;-80
2023/06/19 00:35:29;;;;;;;9.73;8.15;;;11.40;99.90;;;;;;5009223;28;20072;-80
2023/06/19 00:37:54;;;;;;;10.05;8.30;;;11.50;99.90;;;;;;5010467;28;20471;-80
2023/06/19 00:40:28;;;;;;;8.75;7.85;;;11.40;99.90;;;;;;5009487;28;20544;-80
2023/06/19 00:42:54;;;;;;;9.05;8.15;;;11.40;99.90;;;;;;5010508;28;20037;-80
2023/06/19 00:45:20;;;;;;;9.35;8.35;;;11.40;99.90;;;;;;5009191;28;20121;-82
2023/06/19 00:47:45;;;;;;;9.32;7.97;;;11.30;99.90;;;;;;5009181;28;20061;-81
2023/06/19 00:50:12;;;;;;;9.40;8.18;;;11.30;99.90;;;;;;5008811;28;20064;-80
2023/06/19 00:52:37;;;;;;;8.38;7.50;;;11.20;99.90;;;;;;5008958;28;20026;-80
2023/06/19 00:55:04;;;;;;;8.80;7.78;;;11.10;99.90;;;;;;5019016;28;20052;-82
2023/06/19 00:57:31;;;;;;;8.57;7.65;;;11.00;99.90;;;;;;5028657;28;20102;-81
2023/06/19 00:59:58;;;;;;;8.95;8.00;;;11.00;99.90;;;;;;5028401;28;20053;-80
2023/06/19 01:02:25;;;;;;;9.68;8.10;;;11.00;99.90;;;;;;5029438;28;20105;-82
2023/06/19 01:04:53;;;;;;;8.90;7.95;;;11.00;99.90;;;;;;5028492;28;20110;-81
2023/06/19 01:07:28;;;;;;;10.15;7.97;;;11.00;99.90;;;;;;5028527;28;20040;-80
2023/06/19 01:10:00;;;;;;;8.73;7.82;;;11.00;99.90;;;;;;5029810;28;20029;-80
2023/06/19 01:12:33;;;;;;;7.97;7.25;;;11.00;99.90;;;;;;5028331;28;20101;-82
2023/06/19 01:15:03;;;;;;;9.65;8.65;;;10.90;99.90;;;;;;5028324;28;20029;-80
2023/06/19 01:17:29;;;;;;;8.77;7.88;;;10.90;99.90;;;;;;5029600;28;20497;-80
2023/06/19 01:19:56;;;;;;;8.48;7.47;;;10.90;99.90;;;;;;5030047;28;20037;-81
2023/06/19 01:22:32;;;;;;;10.55;8.52;;;10.90;99.90;;;;;;5031611;28;20105;-82
2023/06/19 01:24:58;;;;;;;8.80;7.40;;;10.90;99.90;;;;;;5031985;28;20032;-80
2023/06/19 01:27:25;;;;;;;11.25;7.78;;;10.90;99.90;;;;;;5031878;28;20026;-80
2023/06/19 01:29:53;;;;;;;10.02;8.10;;;10.90;99.90;;;;;;5033018;28;20026;-80
2023/06/19 01:32:25;;;;;;;10.63;7.85;;;10.90;99.90;;;;;;5031548;28;20022;-80
2023/06/19 01:34:54;;;;;;;10.07;7.97;;;10.90;99.90;;;;;;5032902;28;20467;-80
2023/06/19 01:37:20;;;;;;;9.65;8.38;;;10.80;99.90;;;;;;5031583;28;20013;-81
2023/06/19 01:39:47;;;;;;;10.43;8.63;;;10.90;99.90;;;;;;5032652;28;20519;-80
2023/06/19 01:42:14;;;;;;;9.65;8.20;;;10.90;99.90;;;;;;5031397;28;20093;-80
2023/06/19 01:44:40;;;;;;;11.98;9.40;;;10.90;99.90;;;;;;5031671;28;20420;-80
2023/06/19 01:47:11;;;;;;;10.57;8.55;;;10.80;99.90;;;;;;5031356;28;20028;-80
2023/06/19 01:49:37;;;;;;;9.70;8.27;;;10.80;99.90;;;;;;5032460;28;20070;-80
2023/06/19 01:52:02;;;;;;;8.65;7.75;;;10.80;99.90;;;;;;5032631;28;20053;-80
2023/06/19 01:54:28;;;;;;;8.00;7.20;;;10.80;99.90;;;;;;5032554;28;20029;-80
2023/06/19 01:56:54;;;;;;;6.90;6.22;;;10.80;99.90;;;;;;5032385;28;20036;-80
2023/06/19 01:59:21;;;;;;;7.00;6.22;;;10.80;99.90;;;;;;5032221;28;20041;-80
2023/06/19 02:01:46;;;;;;;6.22;5.63;;;10.70;99.90;;;;;;5032525;28;20022;-79
2023/06/19 02:04:12;;;;;;;5.70;5.22;;;10.60;99.90;;;;;;5032227;28;20026;-80
2023/06/19 02:06:37;;;;;;;5.35;4.85;;;10.50;99.90;;;;;;5031014;28;20032;-79
2023/06/19 02:09:03;;;;;;;6.38;5.45;;;10.50;99.90;;;;;;5032137;28;20049;-80
2023/06/19 02:11:29;;;;;;;7.32;6.63;;;10.50;99.90;;;;;;5031456;28;20025;-79
2023/06/19 02:13:54;;;;;;;9.55;8.52;;;10.40;99.90;;;;;;5032641;28;20029;-79
2023/06/19 02:16:20;;;;;;;9.75;7.18;;;10.40;99.90;;;;;;5031124;28;20081;-79
2023/06/19 02:18:45;;;;;;;6.97;6.28;;;10.40;99.90;;;;;;5032069;28;20076;-80
2023/06/19 02:21:11;;;;;;;8.55;7.18;;;10.50;99.90;;;;;;5032261;28;20033;-81
2023/06/19 02:23:37;;;;;;;10.38;8.38;;;10.50;99.90;;;;;;5030698;28;20074;-79
2023/06/19 02:26:03;;;;;;;10.80;8.25;;;10.40;99.90;;;;;;5030682;28;20018;-79
2023/06/19 02:28:28;;;;;;;9.80;7.75;;;10.40;99.90;;;;;;5031939;28;20024;-80
2023/06/19 02:30:54;;;;;;;9.98;8.88;;;10.50;99.90;;;;;;5030694;28;20463;-79
2023/06/19 02:33:20;;;;;;;9.75;8.65;;;10.50;99.90;;;;;;5030997;28;20026;-79
2023/06/19 02:35:45;;;;;;;11.60;9.18;;;10.50;99.90;;;;;;5031875;28;20024;-79
2023/06/19 02:38:12;;;;;;;13.48;9.13;;;10.60;99.90;;;;;;5030385;28;20021;-80
2023/06/19 02:40:39;;;;;;;12.88;8.93;;;10.60;99.90;;;;;;5030391;28;20025;-80
2023/06/19 02:43:04;;;;;;;10.60;9.10;;;10.60;99.90;;;;;;5031588;28;20021;-79
2023/06/19 02:45:30;;;;;;;9.95;8.75;;;10.60;99.90;;;;;;5031642;28;20364;-80
2023/06/19 02:47:55;;;;;;;9.60;8.38;;;10.60;99.90;;;;;;5030209;28;20170;-80
2023/06/19 02:50:21;;;;;;;8.55;6.78;;;10.60;99.90;;;;;;5031384;28;20042;-80
2023/06/19 02:52:47;;;;;;;6.50;5.85;;;10.50;99.90;;;;;;5030357;28;20036;-81
2023/06/19 02:55:13;;;;;;;6.07;5.47;;;10.50;99.90;;;;;;5030236;28;20032;-82
2023/06/19 02:57:38;;;;;;;5.38;4.88;;;10.40;99.90;;;;;;5030122;28;20022;-79
2023/06/19 03:00:09;;;;;;;6.88;6.28;;;10.40;99.90;;;;;;5030718;28;20037;-82
2023/06/19 03:02:35;;;;;;;13.93;7.97;;;10.50;99.90;;;;;;5031622;28;20104;-82
2023/06/19 03:05:02;;;;;;;10.93;8.45;;;10.50;99.90;;;;;;5030412;28;20121;-80
2023/06/19 03:07:28;;;;;;;10.50;7.97;;;10.60;99.90;;;;;;5030459;28;20030;-79
2023/06/19 03:09:54;;;;;;;12.07;8.45;;;10.70;99.90;;;;;;5031417;28;20014;-82
2023/06/19 03:12:20;;;;;;;11.02;7.90;;;10.70;99.90;;;;;;5030432;28;20093;-80
2023/06/19 03:14:45;;;;;;;9.93;8.30;;;10.70;99.90;;;;;;5031293;28;20025;-81
2023/06/19 03:17:12;;;;;;;9.45;7.28;;;10.80;99.90;;;;;;5030134;28;20026;-79
2023/06/19 03:19:37;;;;;;;12.88;8.77;;;10.90;99.90;;;;;;5031134;28;20037;-79
2023/06/19 03:22:03;;;;;;;8.35;7.18;;;10.90;99.90;;;;;;5030029;28;20027;-79
2023/06/19 03:24:29;;;;;;;7.82;6.30;;;11.00;99.90;;;;;;5029746;28;20055;-82
2023/06/19 03:26:54;;;;;;;7.05;6.35;;;11.10;99.90;;;;;;5029929;28;20117;-80
2023/06/19 03:29:20;;;;;;;6.13;5.53;;;11.20;99.90;;;;;;5031017;28;20025;-83
2023/06/19 03:31:46;;;;;;;8.13;6.55;;;11.40;99.90;;;;;;5029866;28;20036;-82
2023/06/19 03:34:12;;;;;;;9.50;6.93;;;11.60;99.90;;;;;;5029667;28;20021;-80
2023/06/19 03:36:38;;;;;;;9.90;7.70;;;11.70;99.90;;;;;;5029556;28;20022;-80
2023/06/19 03:39:04;;;;;;;11.75;9.13;;;11.90;99.90;;;;;;5030758;28;20486;-83
2023/06/19 03:41:29;;;;;;;11.93;8.93;;;12.20;99.90;;;;;;5029415;28;20030;-83
2023/06/19 03:43:55;;;;;;;10.23;8.80;;;12.40;99.90;;;;;;5029354;28;20109;-83
2023/06/19 03:46:21;;;;;;;6.72;6.03;;;12.50;99.90;;;;;;5030769;28;20018;-83
2023/06/19 03:48:46;;;;;;;7.80;6.93;;;12.70;99.90;;;;;;5029405;28;20041;-78
2023/06/19 03:51:12;;;;;;;8.02;6.95;;;12.70;99.90;;;;;;5033675;28;20093;-81
2023/06/19 03:53:37;;;;;;;8.20;7.35;;;12.70;99.90;;;;;;5029552;28;20465;-81
2023/06/19 03:56:03;;;;;;;8.82;6.63;;;12.80;99.90;;;;;;5029600;28;20437;-78
2023/06/19 03:58:29;;;;;;;7.95;6.47;;;12.90;99.90;;;;;;5030488;28;20026;-81
2023/06/19 04:00:54;;;;;;;9.55;7.15;;;13.00;99.90;;;;;;5029652;28;20022;-78
2023/06/19 04:03:20;;;;;;;8.85;7.70;;;13.20;99.90;;;;;;5030611;28;20033;-81
2023/06/19 04:05:45;;;;;;;7.45;6.63;;;13.20;99.90;;;;;;5029318;28;20047;-81
2023/06/19 04:08:11;;;;;;;8.93;7.50;;;13.40;99.90;;;;;;5029173;28;20086;-79
2023/06/19 04:10:36;;;;;;;9.90;7.18;;;13.50;99.90;;;;;;5029141;28;20440;-82
2023/06/19 04:13:05;;;;;;;8.93;7.80;;;13.50;99.90;;;;;;5029203;28;20109;-81
2023/06/19 04:15:32;;;;;;;8.93;8.05;;;13.60;99.90;;;;;;5029520;28;20018;-81
2023/06/19 04:17:57;;;;;;;12.98;8.50;;;13.80;99.90;;;;;;5028723;28;20496;-79
2023/06/19 04:20:23;;;;;;;11.50;7.45;;;13.80;99.90;;;;;;5028899;28;20108;-79
2023/06/19 04:22:48;;;;;;;12.98;7.80;;;13.90;99.90;;;;;;5028956;28;20018;-80
2023/06/19 04:25:14;;;;;;;11.80;7.63;;;14.20;99.90;;;;;;5030214;28;20420;-81
2023/06/19 04:27:40;;;;;;;9.02;8.07;;;14.50;99.90;;;;;;5029025;28;20045;-79
2023/06/19 04:30:06;;;;;;;10.02;8.50;;;14.60;99.90;;;;;;5028958;28;20026;-80
2023/06/19 04:32:34;;;;;;;10.35;8.68;;;14.80;99.90;;;;;;5028975;28;20025;-81
2023/06/19 04:35:00;;;;;;;10.38;8.93;;;15.00;99.90;;;;;;5024509;28;20022;-80
2023/06/19 04:37:25;;;;;;;10.70;8.70;;;15.10;99.90;;;;;;5010326;28;20070;-80
2023/06/19 04:39:51;;;;;;;10.32;8.85;;;15.20;99.90;;;;;;5010127;28;20038;-79
2023/06/19 04:42:19;;;;;;;11.60;8.57;;;15.40;99.90;;;;;;5010302;28;20022;-80
2023/06/19 04:44:47;;;;;;;12.68;9.90;;;15.60;99.90;;;;;;5009185;28;20051;-80
2023/06/19 04:47:14;;;;;;;12.27;10.15;;;15.80;99.90;;;;;;5008974;28;20344;-80
2023/06/19 04:49:39;;;;;;;12.80;10.20;;;15.90;99.90;;;;;;5010142;28;20037;-79
2023/06/19 04:52:05;;;;;;;13.43;10.35;;;16.10;99.90;;;;;;5009211;28;20054;-79
2023/06/19 04:54:32;;;;;;;15.25;10.60;;;16.20;99.90;;;;;;5009069;28;20029;-79
2023/06/19 04:56:58;;;;;;;12.30;10.43;;;16.30;99.90;;;;;;5011203;28;20026;-78
2023/06/19 04:59:24;;;;;;;13.95;10.73;;;16.40;99.90;;;;;;5022727;28;20118;-79
2023/06/19 05:01:53;;;;;;;18.40;11.20;;;16.30;99.90;;;;;;5011707;28;20041;-80
2023/06/19 05:04:19;;;;;;;12.32;9.48;;;16.40;99.90;;;;;;5011967;28;20051;-79
2023/06/19 05:06:45;;;;;;;11.43;10.20;;;16.40;99.90;;;;;;5012908;28;20104;-79
2023/06/19 05:09:11;;;;;;;11.85;10.25;;;16.60;99.90;;;;;;5018540;28;20057;-79
2023/06/19 05:11:37;;;;;;;13.13;10.13;;;16.70;99.90;;;;;;5023279;28;20032;-80
2023/06/19 05:14:03;;;;;;;19.35;12.30;;;16.90;99.90;;;;;;5031817;28;20113;-79
2023/06/19 05:16:28;;;;;;;18.67;11.20;;;17.10;99.90;;;;;;5033064;28;20086;-80
2023/06/19 05:18:54;;;;;;;17.23;13.35;;;17.30;99.90;;;;;;5031436;28;20038;-81
2023/06/19 05:21:19;;;;;;;18.73;13.90;;;17.40;99.90;;;;;;5031729;28;20026;-80
2023/06/19 05:23:50;;;;;;;19.50;12.95;;;17.60;99.90;;;;;;5026475;28;20034;-79
2023/06/19 05:26:16;;;;;;;20.42;12.18;;;17.70;98.50;;;;;;5020993;28;20029;-80
2023/06/19 05:28:42;;;;;;;22.13;13.73;;;17.90;96.90;;;;;;5028211;27;20117;-80
2023/06/19 05:31:07;;;;;;;17.23;13.00;;;18.00;95.00;;;;;;5023259;28;20143;-80
2023/06/19 05:33:33;;;;;;;16.50;13.82;;;18.10;95.70;;;;;;5021078;28;20029;-80
2023/06/19 05:35:58;;;;;;;15.50;12.05;;;18.20;97.70;;;;;;5022776;28;20021;-80
2023/06/19 05:38:25;;;;;;;15.77;12.23;;;18.40;99.70;;;;;;5014385;28;20025;-80
2023/06/19 05:40:52;;;;;;;15.98;12.65;;;18.50;98.80;;;;;;5011482;28;20065;-80
2023/06/19 05:43:18;;;;;;;22.45;12.70;;;18.60;98.40;;;;;;5019285;28;20029;-80
2023/06/19 05:45:44;;;;;;;20.52;15.23;;;18.70;96.10;;;;;;5031269;28;20530;-80
2023/06/19 05:48:10;;;;;;;18.88;14.10;;;18.80;94.00;;;;;;5031138;28;20034;-79
2023/06/19 05:50:35;;;;;;;17.33;12.48;;;18.90;90.60;;;;;;5011802;28;20448;-80
2023/06/19 05:53:01;;;;;;;19.13;12.68;;;19.00;88.80;;;;;;5011418;28;20026;-80
2023/06/19 05:55:29;;;;;;;16.70;13.68;;;19.20;88.60;;;;;;5026258;28;20040;-80
2023/06/19 05:57:55;;;;;;;13.27;11.13;;;19.40;89.40;;;;;;5020560;28;20026;-79
2023/06/19 06:00:22;;;;;;;15.43;11.77;;;19.50;85.20;;;;;;5020310;28;20038;-79
2023/06/19 06:02:48;;;;;;;12.25;10.73;;;19.60;85.30;;;;;;5022202;28;20417;-80
2023/06/19 06:05:13;;;;;;;12.43;10.40;;;19.80;84.10;;;;;;5020323;28;20022;-80
2023/06/19 06:07:39;;;;;;;13.40;9.10;;;19.90;79.00;;;;;;5023881;27;20023;-80
2023/06/19 06:10:05;;;;;;;13.40;10.15;;;20.10;74.20;;;;;;5023039;28;20014;-80
2023/06/19 06:12:34;;;;;;;10.75;8.90;;;20.20;76.60;;;;;;5021620;28;20017;-79
2023/06/19 06:15:01;;;;;;;10.73;9.13;;;20.30;75.60;;;;;;5027697;28;20125;-81
2023/06/19 06:17:26;;;;;;;11.18;10.05;;;20.50;74.40;;;;;;5021392;28;20018;-80
2023/06/19 06:19:52;;;;;;;15.82;12.75;;;20.70;74.30;;;;;;5018356;28;20017;-80
2023/06/19 06:22:18;;;;;;;14.35;12.63;;;20.80;72.80;;;;;;5012116;28;20021;-80
2023/06/19 06:24:47;;;;;;;8.30;7.50;;;21.00;71.20;;;;;;5013274;28;20026;-80
2023/06/19 06:27:13;;;;;;;8.18;7.28;;;21.10;68.80;;;;;;5017433;28;20506;-80
2023/06/19 06:29:45;;;;;;;8.00;6.40;;;21.20;64.40;;;;;;5023637;28;20057;-80
2023/06/19 06:32:10;;;;;;;8.00;6.60;;;21.10;62.50;;;;;;5028439;28;20033;-80
2023/06/19 06:34:36;;;;;;;8.35;7.00;;;21.30;63.30;;;;;;5023861;28;20276;-80
2023/06/19 06:37:02;;;;;;;11.05;8.70;;;21.40;62.20;;;;;;5013239;28;20434;-80
2023/06/19 06:39:28;;;;;;;15.23;11.23;;;21.60;63.00;;;;;;5027088;28;20051;-80
2023/06/19 06:41:53;;;;;;;10.65;9.27;;;21.70;62.10;;;;;;5030207;28;20021;-80
2023/06/19 06:44:19;;;;;;;10.52;9.10;;;21.90;62.00;;;;;;5027131;28;20021;-80
2023/06/19 06:46:45;;;;;;;12.05;9.20;;;22.00;63.00;;;;;;5018936;28;20387;-80
2023/06/19 06:49:11;;;;;;;9.38;8.10;;;22.20;63.40;;;;;;5020988;28;20018;-80
2023/06/19 06:51:36;;;;;;;8.48;6.95;;;22.20;61.00;;;;;;5031272;28;20052;-80
2023/06/19 06:54:02;;;;;;;6.95;6.30;;;22.30;59.40;;;;;;5029953;28;20037;-80
2023/06/19 06:56:28;;;;;;;8.50;7.68;;;22.50;61.70;;;;;;5031362;28;20459;-80
2023/06/19 06:58:53;;;;;;;7.97;6.75;;;22.50;61.10;;;;;;5026180;28;20025;-80
2023/06/19 07:01:19;;;;;;;8.82;6.97;;;22.60;59.90;;;;;;5010376;28;20029;-79
2023/06/19 07:03:45;;;;;;;8.32;7.45;;;22.60;61.10;;;;;;5018215;28;20113;-79
2023/06/19 07:06:10;;;;;;;7.72;7.00;;;22.80;60.80;;;;;;5029869;28;20471;-79
2023/06/19 07:08:37;;;;;;;8.30;7.20;;;22.90;59.90;;;;;;5030293;28;20493;-80
2023/06/19 07:11:02;;;;;;;7.13;6.53;;;23.00;60.20;;;;;;5030006;28;20025;-79
2023/06/19 07:13:28;;;;;;;9.80;7.28;;;23.20;60.30;;;;;;5031152;28;20349;-80
2023/06/19 07:15:53;;;;;;;7.40;6.70;;;23.30;60.40;;;;;;5026499;28;20109;-81
2023/06/19 07:18:19;;;;;;;8.07;7.00;;;23.40;59.70;;;;;;5013299;28;20033;-81
2023/06/19 07:20:45;;;;;;;7.47;6.78;;;23.40;58.60;;;;;;5020120;28;20033;-81
2023/06/19 07:23:11;;;;;;;10.52;7.47;;;23.50;58.40;;;;;;5017611;28;20421;-80
2023/06/19 07:25:37;;;;;;;8.25;6.55;;;23.50;59.50;;;;;;5020395;28;20494;-80
2023/06/19 07:28:04;;;;;;;7.93;7.20;;;23.70;60.10;;;;;;5009943;28;20018;-81
2023/06/19 07:30:31;;;;;;;7.68;6.88;;;23.70;59.60;;;;;;5010351;28;20433;-81
2023/06/19 07:32:57;;;;;;;6.63;5.95;;;23.70;58.20;;;;;;5010740;28;20018;-80
2023/06/19 07:35:22;;;;;;;8.10;6.70;;;23.80;58.30;;;;;;5011626;28;20028;-81
2023/06/19 07:37:48;;;;;;;8.10;6.97;;;23.90;58.20;;;;;;5009865;28;20028;-81
2023/06/19 07:40:14;;;;;;;7.47;6.72;;;24.00;58.10;;;;;;5009818;28;20030;-81
2023/06/19 07:42:39;;;;;;;7.07;6.38;;;24.00;57.40;;;;;;5016347;28;20033;-81
2023/06/19 07:45:05;;;;;;;7.60;6.78;;;24.00;57.00;;;;;;5019416;28;20025;-81
2023/06/19 07:47:31;;;;;;;11.25;8.45;;;24.20;57.10;;;;;;5018081;28;20053;-81
2023/06/19 07:49:57;;;;;;;7.60;6.45;;;24.20;56.80;;;;;;5019719;28;20064;-81
2023/06/19 07:52:22;;;;;;;6.78;6.18;;;24.30;56.70;;;;;;5016912;28;20056;-82
2023/06/19 07:54:53;;;;;;;6.10;5.50;;;24.10;53.30;;;;;;5033527;28;20037;-81
2023/06/19 07:57:19;;;;;;;7.53;6.65;;;24.30;53.90;;;;;;5007576;28;20026;-80
2023/06/19 07:59:45;;;;;;;8.55;6.10;;;24.50;54.10;;;;;;5007147;28;20376;-79
2023/06/19 08:02:11;;;;;;;6.75;6.15;;;24.80;55.10;;;;;;5007243;28;20022;-79
2023/06/19 08:04:36;;;;;;;5.43;4.93;;;24.80;54.50;;;;;;5006279;28;20033;-79
2023/06/19 08:07:02;;;;;;;6.78;5.72;;;24.90;52.30;;;;;;5006711;28;20058;-79
2023/06/19 08:09:28;;;;;;;5.28;4.88;;;24.90;52.00;;;;;;5006872;28;20022;-81
2023/06/19 08:11:53;;;;;;;4.60;4.20;;;24.80;49.90;;;;;;5007391;28;20022;-79
2023/06/19 08:14:19;;;;;;;6.30;5.78;;;25.00;49.50;;;;;;5009028;28;20026;-81
2023/06/19 08:16:45;;;;;;;5.65;5.15;;;25.00;49.40;;;;;;5010496;28;20448;-81
2023/06/19 08:19:10;;;;;;;6.22;5.63;;;24.90;49.50;;;;;;5010359;28;20042;-80
2023/06/19 08:21:36;;;;;;;8.90;6.07;;;25.10;50.40;;;;;;5009377;28;20022;-81
2023/06/19 08:24:02;;;;;;;6.43;5.85;;;25.20;50.20;;;;;;5009502;28;20075;-81
2023/06/19 08:26:28;;;;;;;8.35;7.50;;;25.40;51.00;;;;;;5009429;28;20539;-79
2023/06/19 08:28:54;;;;;;;7.68;6.80;;;25.50;51.20;;;;;;5009431;28;20029;-81
2023/06/19 08:31:21;;;;;;;8.52;6.93;;;25.60;51.50;;;;;;5010981;28;20022;-81
2023/06/19 08:33:50;;;;;;;6.78;6.18;;;25.60;53.00;;;;;;5014107;28;20391;-80
2023/06/19 08:36:16;;;;;;;6.32;5.72;;;25.50;52.20;;;;;;5012772;28;20045;-80
2023/06/19 08:38:41;;;;;;;5.60;5.05;;;25.60;51.80;;;;;;5013371;28;20053;-80
2023/06/19 08:41:07;;;;;;;5.93;5.43;;;25.40;50.00;;;;;;5014408;28;20026;-79
2023/06/19 08:43:32;;;;;;;5.80;5.30;;;25.40;52.10;;;;;;5014153;28;20044;-79
2023/06/19 08:46:11;;;;;;;5.93;5.22;;;25.20;51.30;;;;;;5014217;28;20030;-80
2023/06/19 08:48:37;;;;;;;5.20;4.80;;;25.40;51.00;;;;;;5012674;28;20024;-80
2023/06/19 08:51:04;;;;;;;6.78;6.13;;;25.50;48.80;;;;;;5012487;28;20050;-81
2023/06/19 08:53:36;;;;;;;6.10;5.55;;;25.60;50.20;;;;;;5012475;28;20098;-80
2023/06/19 08:56:03;;;;;;;5.50;5.00;;;25.60;48.80;;;;;;5012615;28;20014;-80
2023/06/19 08:58:29;;;;;;;5.30;4.90;;;25.60;48.70;;;;;;5012334;28;20029;-81
2023/06/19 09:00:54;;;;;;;5.25;4.78;;;25.70;48.80;;;;;;5015326;28;20034;-81
2023/06/19 09:03:21;;;;;;;5.18;4.78;;;25.80;47.50;;;;;;5014398;28;20112;-80
2023/06/19 09:05:51;;;;;;;6.10;5.55;;;25.80;47.60;;;;;;5012178;28;20029;-81
2023/06/19 09:08:18;;;;;;;5.88;4.85;;;25.80;48.70;;;;;;5011707;28;20029;-81
2023/06/19 09:10:57;;;;;;;8.05;5.70;;;25.80;47.20;;;;;;5012329;28;20022;-81
2023/06/19 09:13:23;;;;;;;7.25;4.97;;;26.10;48.00;;;;;;5012129;28;20048;-79
2023/06/19 09:16:01;;;;;;;5.28;4.78;;;26.10;47.80;;;;;;5012727;28;20029;-79
2023/06/19 09:18:28;;;;;;;6.05;4.78;;;26.10;46.70;;;;;;5011409;28;20022;-80
2023/06/19 09:20:54;;;;;;;5.68;5.07;;;26.30;47.80;;;;;;5010123;28;20117;-83
2023/06/19 09:23:20;;;;;;;5.18;4.75;;;26.40;47.30;;;;;;5011720;28;20108;-81
2023/06/19 09:25:47;;;;;;;5.70;5.20;;;26.50;47.00;;;;;;5014732;28;20022;-80
2023/06/19 09:28:20;;;;;;;6.25;4.55;;;26.80;47.80;;;;;;5013238;28;20438;-82
2023/06/19 09:31:02;;;;;;;4.90;4.50;;;26.80;46.40;;;;;;5013562;28;20022;-82
2023/06/19 09:33:29;;;;;;;;;;;26.80;46.00;;;;;;5013625;28;20034;-80
2023/06/19 09:35:56;;;;;;;5.20;4.70;;;26.80;46.20;;;;;;5012024;28;19905;-80
2023/06/19 09:38:27;;;;;;;4.72;4.32;;;26.60;46.20;;;;;;5011768;28;20026;-82
2023/06/19 09:40:53;;;;;;;5.07;4.68;;;27.00;46.30;;;;;;5013172;28;20038;-82
2023/06/19 09:43:24;;;;;;;5.05;4.28;;;27.10;45.60;;;;;;5011521;28;20033;-80
2023/06/19 09:45:53;;;;;;;5.35;4.85;;;27.20;44.50;;;;;;5013963;28;20506;-80
2023/06/19 09:48:22;;;;;;;5.72;4.47;;;27.40;44.20;;;;;;5013153;28;20116;-82
2023/06/19 09:50:53;;;;;;;5.38;4.80;;;27.50;43.40;;;;;;5011729;28;20406;-80
2023/06/19 09:53:20;;;;;;;6.07;5.47;;;27.50;43.50;;;;;;5013094;28;20029;-82
2023/06/19 09:55:50;;;;;;;8.57;5.63;;;27.60;44.00;;;;;;5013164;28;20121;-82
2023/06/19 09:58:19;;;;;;;5.90;5.13;;;27.40;44.50;;;;;;5013268;28;20022;-81
2023/06/19 10:00:47;;;;;;;6.63;5.70;;;27.20;43.70;;;;;;5011733;28;20034;-80
2023/06/19 10:03:13;;;;;;;7.32;5.47;;;26.90;45.80;;;;;;5012809;28;20048;-82
2023/06/19 10:05:40;;;;;;;5.82;5.43;;;26.60;46.10;;;;;;5012904;28;20030;-82
2023/06/19 10:08:06;;;;;;;6.18;5.57;;;26.60;46.30;;;;;;5012696;28;20026;-82
2023/06/19 10:10:31;;;;;;;6.45;5.85;;;26.70;46.10;;;;;;5012645;28;20029;-80
2023/06/19 10:13:12;;;;;;;7.15;5.90;;;26.70;46.70;;;;;;5012571;28;20440;-83
2023/06/19 10:15:44;;;;;;;5.43;5.00;;;27.10;48.60;;;;;;5012215;28;20037;-82
2023/06/19 10:18:18;;;;;;;5.55;5.15;;;27.40;46.10;;;;;;5011593;28;20030;-82
2023/06/19 10:20:46;;;;;;;7.35;5.15;;;27.50;45.00;;;;;;5011262;28;20034;-79
2023/06/19 10:23:20;;;;;;;6.50;5.93;;;27.50;45.50;;;;;;5012439;28;20033;-80
2023/06/19 10:25:57;;;;;;;5.72;5.30;;;27.30;44.20;;;;;;5012644;28;20030;-82
2023/06/19 10:28:25;;;;;;;6.38;5.78;;;26.90;43.70;;;;;;5011614;28;20097;-80
2023/06/19 10:30:54;;;;;;;7.95;5.88;;;26.10;46.70;;;;;;5012312;28;20026;-79
2023/06/19 10:33:21;;;;;;;6.80;6.03;;;25.60;47.40;;;;;;5011046;28;20034;-81
2023/06/19 10:35:47;;;;;;;6.90;6.20;;;25.30;49.00;;;;;;5011090;28;20030;-81
2023/06/19 10:38:15;;;;;;;6.60;6.00;;;25.00;49.70;;;;;;5011580;28;20030;-82
2023/06/19 10:40:44;;;;;;;5.97;5.47;;;24.80;49.50;;;;;;5013110;28;20053;-81
2023/06/19 10:43:09;;;;;;;7.13;5.93;;;24.70;50.10;;;;;;5109178;27;20545;-81
2023/06/19 10:45:35;;;;;;;6.63;5.60;;;24.50;50.10;;;;;;5134390;27;20016;-80
2023/06/19 10:48:05;;;;;;;6.63;5.93;;;24.60;50.00;;;;;;5133998;27;20466;-81
2023/06/19 10:50:42;;;;;;;8.95;5.70;;;24.60;49.50;;;;;;5136144;27;20374;-82
2023/06/19 10:53:08;;;;;;;6.85;6.25;;;24.80;48.80;;;;;;5134062;27;20465;-80
2023/06/19 10:55:33;;;;;;;8.13;6.13;;;25.00;48.60;;;;;;5134490;27;20030;-81
2023/06/19 10:57:59;;;;;;;7.15;5.68;;;25.30;48.00;;;;;;5135512;27;20023;-81
2023/06/19 11:00:33;;;;;;;7.68;6.22;;;25.80;47.80;;;;;;5135115;27;20040;-79
2023/06/19 11:02:59;;;;;;;6.57;5.97;;;25.80;47.10;;;;;;5136585;27;20027;-82
2023/06/19 11:05:26;;;;;;;10.30;7.00;;;26.00;47.50;;;;;;5134612;27;20015;-80
2023/06/19 11:07:54;;;;;;;6.05;5.63;;;26.50;48.00;;;;;;5135754;27;20468;-80
2023/06/19 11:10:22;;;;;;;7.30;6.25;;;26.70;48.70;;;;;;5135672;27;20023;-78
2023/06/19 11:12:48;;;;;;;6.63;5.93;;;27.00;48.10;;;;;;5134237;27;20039;-80
2023/06/19 11:15:14;;;;;;;6.22;5.70;;;27.00;45.20;;;;;;5134232;27;20111;-78
2023/06/19 11:17:39;;;;;;;6.43;5.82;;;27.00;44.70;;;;;;5134046;27;20019;-79
2023/06/19 11:20:13;;;;;;;6.63;5.80;;;26.40;44.90;;;;;;5133990;27;20035;-80
2023/06/19 11:22:40;;;;;;;8.32;6.28;;;25.90;45.80;;;;;;5135396;27;20415;-80
2023/06/19 11:25:08;;;;;;;6.65;5.95;;;25.60;46.80;;;;;;5134863;27;20098;-78
2023/06/19 11:27:37;;;;;;;5.90;5.38;;;25.50;46.50;;;;;;5133984;27;20023;-81
2023/06/19 11:30:06;;;;;;;6.53;6.03;;;25.30;48.60;;;;;;5135255;27;20019;-79
2023/06/19 11:32:40;;;;;;;7.30;6.07;;;25.00;48.60;;;;;;5133807;27;20579;-78
2023/06/19 11:35:07;;;;;;;6.28;5.78;;;25.10;48.70;;;;;;5134029;27;20381;-78
2023/06/19 11:37:34;;;;;;;6.93;5.82;;;25.10;48.30;;;;;;5135188;27;20458;-80
2023/06/19 11:40:00;;;;;;;8.73;6.45;;;25.60;48.50;;;;;;5133552;27;20445;-79
2023/06/19 11:42:26;;;;;;;7.47;6.03;;;25.90;48.20;;;;;;5133668;27;20019;-78
2023/06/19 11:45:05;;;;;;;5.75;5.30;;;25.70;47.30;;;;;;5133565;27;20027;-78
2023/06/19 11:47:31;;;;;;;6.38;5.68;;;25.70;46.40;;;;;;5135483;27;20102;-82
2023/06/19 11:49:58;;;;;;;5.93;5.43;;;26.00;46.50;;;;;;5136013;27;20457;-81
2023/06/19 11:52:23;;;;;;;5.88;5.38;;;26.20;47.10;;;;;;5135096;27;20023;-79
2023/06/19 11:54:49;;;;;;;6.38;5.88;;;26.10;46.30;;;;;;5135183;27;20073;-81
2023/06/19 11:57:15;;;;;;;5.85;5.32;;;26.40;45.70;;;;;;5129199;27;20132;-81
2023/06/19 11:59:41;;;;;;;5.88;5.38;;;26.60;46.70;;;;;;5133299;27;20041;-81
2023/06/19 12:02:08;;;;;;;5.47;4.97;;;27.00;46.70;;;;;;5133034;27;20027;-81
2023/06/19 12:04:34;;;;;;;6.50;5.82;;;27.40;45.70;;;;;;5133286;27;20391;-79
2023/06/19 12:07:00;;;;;;;6.20;5.20;;;27.40;45.30;;;;;;5133348;27;20027;-81
2023/06/19 12:09:27;;;;;;;5.68;5.20;;;27.40;44.40;;;;;;5134608;27;20026;-81
2023/06/19 12:11:53;;;;;;;7.88;6.18;;;27.00;44.20;;;;;;5133328;27;20023;-79
2023/06/19 12:14:19;;;;;;;5.50;4.90;;;26.70;45.40;;;;;;5135199;27;20019;-81
2023/06/19 12:16:48;;;;;;;6.15;5.55;;;26.40;47.40;;;;;;5133416;27;20027;-79
2023/06/19 12:19:14;;;;;;;5.45;5.05;;;26.20;47.60;;;;;;5133130;27;20027;-79
2023/06/19 12:21:40;;;;;;;6.47;5.35;;;26.00;46.80;;;;;;5133454;27;20031;-80
2023/06/19 12:24:06;;;;;;;5.97;5.47;;;25.90;46.10;;;;;;5133606;27;20427;-81
2023/06/19 12:26:36;;;;;;;5.93;5.40;;;26.00;47.80;;;;;;5133997;27;20019;-79
2023/06/19 12:29:03;;;;;;;5.82;5.35;;;26.40;46.90;;;;;;5061731;28;20030;-79
2023/06/19 12:31:29;;;;;;;6.28;5.63;;;26.80;45.10;;;;;;5010646;28;20022;-81
2023/06/19 12:33:55;;;;;;;5.50;5.07;;;27.20;44.90;;;;;;5009332;28;20036;-79
2023/06/19 12:36:20;;;;;;;6.93;5.38;;;27.60;45.80;;;;;;5011652;28;20026;-81
2023/06/19 12:38:47;;;;;;;5.57;5.15;;;27.80;45.40;;;;;;5010799;28;20022;-79
2023/06/19 12:41:13;;;;;;;6.93;6.28;;;27.90;44.10;;;;;;5009524;28;20057;-79